ZSP weather

St. Paul Airport
St. Paul, Alberta, Canada

Public forecast

Using degrees Celsius for public forecast. Weather courtesy of forecast.io.

Closest aviation weather report (METAR) to St. Paul Airport

Closest report is CFB Cold Lake, 45.9 nm (85.0 km) ENE. Retrieved 2019/10/21 18:00 UTC (53 minutes ago):

CYOD 211800Z 13003KT 15SM FEW003 BKN090 BKN120 M01/M01 A2998 RMK SC1AC6AC1 VIRGA SC TR SLP182

Closest aviation forecast (TAF) to St. Paul Airport

Closest forecast is CFB Cold Lake, 45.9 nm (85.0 km) ENE. Retrieved 2019/10/21 18:35 UTC (18 minutes ago):

TAF CYOD 211730Z 2118/2218 12008KT P6SM BKN120 FM212100 12008KT P6SM SCT030 BKN060 OVC120 FM220300 VRB03KT P6SM SCT020 TEMPO 2203/2218 2SM BR PROB30 2212/2217 1/2SM -FZDZ FZFG RMK NXT FCST BY 212100Z